Time;durP1;ratioP1;P1;durP2;ratioP2;P2;SDS_P1;SDS_P2;PMS_P1;PMS_P2;Temp;Humidity;BMP_temperature;BMP_pressure;BME280_temperature;BME280_humidity;BME280_pressure;Samples;Min_cycle;Max_cycle;Signal;HPM_P1;HPM_P2
2021/11/08 00:00:36;;;;;;;14.93;7.10;;;9.70;58.50;;;;;;6199443;28;20049;-78
2021/11/08 00:03:41;;;;;;;20.00;8.05;;;9.70;58.60;;;;;;6200499;28;20026;-78
2021/11/08 00:06:42;;;;;;;14.93;7.97;;;9.60;58.60;;;;;;6200133;28;20092;-77
2021/11/08 00:09:45;;;;;;;18.35;8.25;;;9.60;58.80;;;;;;6200794;28;20030;-77
2021/11/08 00:12:46;;;;;;;20.40;7.88;;;9.60;58.90;;;;;;6201064;28;20396;-78
2021/11/08 00:16:04;;;;;;;13.07;7.20;;;9.60;59.00;;;;;;6197392;28;20464;-78
2021/11/08 00:20:10;;;;;;;12.23;6.93;;;9.60;59.00;;;;;;6198828;28;20022;-78
2021/11/08 00:22:38;;;;;;;21.58;8.75;;;9.60;59.70;;;;;;6191024;28;20430;-78
2021/11/08 00:25:41;;;;;;;14.60;8.38;;;9.60;59.20;;;;;;6197992;28;20116;-78
2021/11/08 00:28:42;;;;;;;16.58;8.05;;;9.50;59.20;;;;;;6198220;28;20133;-78
2021/11/08 00:31:43;;;;;;;16.73;7.68;;;9.50;59.30;;;;;;6199987;28;20058;-78
2021/11/08 00:34:44;;;;;;;19.95;8.80;;;9.40;59.40;;;;;;6198182;28;20128;-78
2021/11/08 00:37:46;;;;;;;18.48;8.38;;;9.40;59.50;;;;;;6198994;28;20380;-78
2021/11/08 00:40:48;;;;;;;16.30;8.10;;;9.40;59.60;;;;;;6196340;28;20050;-78
2021/11/08 00:43:48;;;;;;;18.30;8.23;;;9.30;59.60;;;;;;6198145;28;20027;-78
2021/11/08 00:46:50;;;;;;;18.38;7.80;;;9.30;59.70;;;;;;6212243;28;20030;-78
2021/11/08 00:49:52;;;;;;;18.90;8.25;;;9.30;59.80;;;;;;6200747;28;20466;-78
2021/11/08 00:52:54;;;;;;;15.35;7.40;;;9.20;59.90;;;;;;6197634;28;20038;-76
2021/11/08 00:55:56;;;;;;;17.55;8.55;;;9.20;60.10;;;;;;6198924;28;20099;-78
2021/11/08 00:58:59;;;;;;;18.55;8.02;;;9.20;60.10;;;;;;6199077;28;20037;-79
2021/11/08 01:01:59;;;;;;;17.48;8.05;;;9.20;60.20;;;;;;6198898;28;20030;-77
2021/11/08 01:05:01;;;;;;;24.13;9.32;;;9.20;60.20;;;;;;6198389;28;20041;-76
2021/11/08 01:08:03;;;;;;;19.30;7.93;;;9.20;60.20;;;;;;6211055;28;20041;-77
2021/11/08 01:11:04;;;;;;;18.10;7.30;;;9.20;60.30;;;;;;6196271;28;20038;-77
2021/11/08 01:14:05;;;;;;;18.33;7.97;;;9.10;60.20;;;;;;6197351;28;20383;-77
2021/11/08 01:17:07;;;;;;;15.93;7.53;;;9.00;60.30;;;;;;6178132;28;20114;-77
2021/11/08 01:20:10;;;;;;;15.27;7.65;;;9.00;60.50;;;;;;6197149;28;20085;-77
2021/11/08 01:23:13;;;;;;;15.25;6.90;;;9.00;60.50;;;;;;6198749;28;20452;-77
2021/11/08 01:26:15;;;;;;;16.38;7.40;;;9.00;60.50;;;;;;6198694;28;20411;-77
2021/11/08 01:29:16;;;;;;;15.27;6.90;;;9.00;60.60;;;;;;6197021;28;20027;-77
2021/11/08 01:32:36;;;;;;;16.60;7.47;;;8.90;60.60;;;;;;6197152;28;20033;-76
2021/11/08 01:35:43;;;;;;;16.50;6.55;;;8.80;60.90;;;;;;6211737;28;20109;-77
2021/11/08 01:38:47;;;;;;;18.52;8.60;;;8.80;61.30;;;;;;6198252;28;20057;-77
2021/11/08 01:41:48;;;;;;;13.38;7.72;;;8.70;61.60;;;;;;6197979;28;20128;-76
2021/11/08 01:44:49;;;;;;;19.35;7.93;;;8.70;61.80;;;;;;6194870;28;20041;-77
2021/11/08 01:47:51;;;;;;;18.98;7.10;;;8.60;61.80;;;;;;6198736;28;20030;-77
2021/11/08 01:50:53;;;;;;;17.83;7.85;;;8.60;61.90;;;;;;6199082;28;20057;-77
2021/11/08 01:53:55;;;;;;;16.40;7.80;;;8.60;62.00;;;;;;6201512;28;20057;-77
2021/11/08 01:56:58;;;;;;;18.27;7.25;;;8.60;62.10;;;;;;6204345;28;20023;-77
2021/11/08 02:00:02;;;;;;;13.32;7.10;;;8.60;62.10;;;;;;6216562;28;20018;-77
2021/11/08 02:03:06;;;;;;;19.45;8.88;;;8.60;62.90;;;;;;6224586;28;20031;-77
2021/11/08 02:06:06;;;;;;;18.13;7.70;;;8.60;62.10;;;;;;6228327;28;20045;-76
2021/11/08 02:09:09;;;;;;;20.13;7.65;;;8.70;62.10;;;;;;6217011;28;20030;-78
2021/11/08 02:12:10;;;;;;;18.05;7.57;;;8.70;62.10;;;;;;6201888;28;20066;-77
2021/11/08 02:15:16;;;;;;;15.63;7.32;;;8.70;62.10;;;;;;6202424;28;20030;-77
2021/11/08 02:18:19;;;;;;;15.48;8.30;;;8.70;62.10;;;;;;6203658;28;20527;-77
2021/11/08 02:21:20;;;;;;;15.98;7.68;;;8.80;62.00;;;;;;6199936;28;20026;-77
2021/11/08 02:24:24;;;;;;;18.20;8.60;;;8.80;62.00;;;;;;6202491;28;20026;-77
2021/11/08 02:27:25;;;;;;;16.70;8.43;;;8.90;61.90;;;;;;6214356;28;20022;-77
2021/11/08 02:30:30;;;;;;;16.23;7.60;;;8.90;61.80;;;;;;6218599;28;20506;-76
2021/11/08 02:33:31;;;;;;;16.45;8.27;;;8.90;61.90;;;;;;6204618;28;20034;-77
2021/11/08 02:36:31;;;;;;;14.15;7.28;;;8.90;61.80;;;;;;6205732;28;20097;-77
2021/11/08 02:39:38;;;;;;;17.58;8.23;;;8.80;61.80;;;;;;6198437;28;20022;-78
2021/11/08 02:42:39;;;;;;;20.02;7.90;;;8.80;61.90;;;;;;6184260;28;20470;-77
2021/11/08 02:45:40;;;;;;;14.70;7.43;;;8.80;62.00;;;;;;6201306;28;20471;-77
2021/11/08 02:48:44;;;;;;;16.10;7.28;;;8.70;62.10;;;;;;6202753;28;20101;-78
2021/11/08 02:51:53;;;;;;;18.63;7.90;;;8.70;62.10;;;;;;6200813;28;20026;-78
2021/11/08 02:54:54;;;;;;;16.30;7.72;;;8.80;62.10;;;;;;6215600;28;20048;-77
2021/11/08 02:57:57;;;;;;;22.90;8.15;;;8.80;62.00;;;;;;6202393;28;20027;-77
2021/11/08 03:00:58;;;;;;;14.10;7.53;;;8.80;62.10;;;;;;6200233;28;20367;-78
2021/11/08 03:04:01;;;;;;;18.20;7.35;;;8.80;62.10;;;;;;6215083;28;20036;-77
2021/11/08 03:07:02;;;;;;;12.57;6.82;;;8.80;62.10;;;;;;6201942;28;20030;-77
2021/11/08 03:10:11;;;;;;;12.27;7.30;;;8.90;62.00;;;;;;6197524;28;20093;-77
2021/11/08 03:13:17;;;;;;;17.10;7.43;;;8.90;62.00;;;;;;6200315;28;20030;-77
2021/11/08 03:16:27;;;;;;;12.65;6.55;;;8.90;61.80;;;;;;6200781;28;20034;-77
2021/11/08 03:19:33;;;;;;;19.10;7.60;;;8.90;61.70;;;;;;6202890;28;20030;-77
2021/11/08 03:22:35;;;;;;;13.68;6.20;;;9.00;61.50;;;;;;6182673;28;20054;-77
2021/11/08 03:25:47;;;;;;;16.50;7.43;;;9.00;61.40;;;;;;6200604;28;20484;-77
2021/11/08 03:28:48;;;;;;;14.07;7.55;;;9.00;61.50;;;;;;6198428;28;21021;-77
2021/11/08 03:31:51;;;;;;;15.77;7.38;;;9.00;61.40;;;;;;6201047;28;20027;-77
2021/11/08 03:35:04;;;;;;;14.73;7.38;;;9.00;61.40;;;;;;6195613;28;20045;-78
2021/11/08 03:38:08;;;;;;;12.75;6.72;;;9.10;61.40;;;;;;6184970;28;20033;-77
2021/11/08 03:41:09;;;;;;;12.95;6.68;;;9.00;61.40;;;;;;6200801;28;20363;-77
2021/11/08 03:44:10;;;;;;;15.32;6.68;;;9.00;61.40;;;;;;6200121;28;20030;-77
2021/11/08 03:47:11;;;;;;;18.05;7.55;;;9.00;61.50;;;;;;6196929;28;20026;-77
2021/11/08 03:50:13;;;;;;;19.27;7.35;;;9.00;61.50;;;;;;6200306;28;20050;-77
2021/11/08 03:53:14;;;;;;;14.68;7.40;;;9.00;61.40;;;;;;6198812;28;20080;-77
2021/11/08 03:56:15;;;;;;;16.65;7.03;;;9.10;61.40;;;;;;6201203;28;20399;-77
2021/11/08 03:59:16;;;;;;;12.27;6.22;;;9.10;61.30;;;;;;6199269;28;20034;-77
2021/11/08 04:02:17;;;;;;;14.25;6.75;;;9.10;61.20;;;;;;6197741;28;20107;-76
2021/11/08 04:05:19;;;;;;;14.88;7.15;;;9.00;61.20;;;;;;6201124;28;20109;-77
2021/11/08 04:08:21;;;;;;;11.30;6.00;;;9.00;61.30;;;;;;6209331;28;20034;-77
2021/11/08 04:11:23;;;;;;;14.82;6.65;;;9.00;61.40;;;;;;6199022;28;20037;-77
2021/11/08 04:14:25;;;;;;;15.10;6.82;;;9.00;61.50;;;;;;6198717;28;20034;-78
2021/11/08 04:17:27;;;;;;;13.48;7.03;;;9.10;61.40;;;;;;6198148;28;20360;-78
2021/11/08 04:20:28;;;;;;;18.58;7.47;;;9.00;61.40;;;;;;6208956;28;20562;-79
2021/11/08 04:23:30;;;;;;;16.88;6.95;;;9.00;61.50;;;;;;6200077;28;20022;-78
2021/11/08 04:26:32;;;;;;;18.35;7.40;;;9.00;61.50;;;;;;6196076;28;20026;-77
2021/11/08 04:29:33;;;;;;;13.45;6.43;;;9.00;61.20;;;;;;6199760;28;20026;-77
2021/11/08 04:32:49;;;;;;;12.73;6.30;;;9.00;61.20;;;;;;6182294;28;20084;-78
2021/11/08 04:39:16;;;;;;;13.63;6.22;;;8.90;61.10;;;;;;6194686;28;20027;-78
2021/11/08 04:46:03;;;;;;;18.90;6.95;;;9.00;61.20;;;;;;6144334;28;20047;-78
2021/11/08 04:55:42;;;;;;;13.15;6.65;;;9.00;61.00;;;;;;6147340;28;20035;-77
2021/11/08 05:22:16;;;;;;;13.57;6.22;;;8.80;60.90;;;;;;6161755;28;20031;-76
2021/11/08 05:28:44;;;;;;;15.50;7.25;;;8.80;61.10;;;;;;6197839;28;20038;-76
2021/11/08 05:31:49;;;;;;;;;;;8.90;61.20;;;;;;6195302;28;20436;-76
2021/11/08 05:34:51;;;;;;;10.48;5.70;;;8.90;60.90;;;;;;6197551;28;20012;-77
2021/11/08 05:37:52;;;;;;;13.32;6.30;;;9.00;60.60;;;;;;6198973;28;20400;-78
2021/11/08 05:40:52;;;;;;;10.23;5.63;;;9.00;60.30;;;;;;6182263;28;20046;-76
2021/11/08 05:43:54;;;;;;;17.70;6.45;;;9.00;60.10;;;;;;6215283;28;20026;-77
2021/11/08 05:46:55;;;;;;;10.65;5.43;;;9.00;60.10;;;;;;6220305;28;20050;-77
2021/11/08 05:49:56;;;;;;;12.18;6.57;;;9.00;60.10;;;;;;6204688;28;20122;-76
2021/11/08 05:52:57;;;;;;;11.90;6.70;;;9.20;60.20;;;;;;6198424;28;20026;-76
2021/11/08 05:56:16;;;;;;;12.43;6.18;;;9.20;59.90;;;;;;6201458;28;20052;-77
2021/11/08 05:59:39;;;;;;;12.52;6.20;;;9.20;59.80;;;;;;6201653;28;20026;-77
2021/11/08 06:49:38;;;;;;;16.60;6.45;;;9.60;58.60;;;;;;6152032;29;20047;-72
2021/11/08 06:52:39;;;;;;;11.93;6.15;;;9.50;58.60;;;;;;6180113;28;20042;-72
2021/11/08 06:55:40;;;;;;;18.40;6.40;;;9.60;58.50;;;;;;6183075;28;20144;-73
2021/11/08 06:58:41;;;;;;;12.63;6.18;;;9.50;58.30;;;;;;6203063;28;20026;-74
2021/11/08 07:01:44;;;;;;;13.00;6.10;;;9.50;58.30;;;;;;6199614;28;20034;-74
2021/11/08 07:04:45;;;;;;;13.02;5.50;;;9.50;58.40;;;;;;6198146;28;20030;-75
2021/11/08 07:07:47;;;;;;;22.42;6.25;;;9.40;58.40;;;;;;6194903;28;20555;-74
2021/11/08 07:10:49;;;;;;;15.93;6.57;;;9.40;58.50;;;;;;6198737;28;20030;-72
2021/11/08 07:13:49;;;;;;;14.25;6.35;;;9.40;58.50;;;;;;6199983;28;20112;-73
2021/11/08 07:16:50;;;;;;;13.60;5.95;;;9.50;58.60;;;;;;6200282;28;20038;-73
2021/11/08 07:19:51;;;;;;;16.50;5.47;;;9.50;58.50;;;;;;6199692;28;20080;-73
2021/11/08 07:22:54;;;;;;;13.52;5.85;;;9.50;58.40;;;;;;6199503;28;20026;-73
2021/11/08 07:25:55;;;;;;;12.77;6.03;;;9.50;58.40;;;;;;6200135;28;20026;-73
2021/11/08 07:28:56;;;;;;;11.93;5.95;;;9.50;58.30;;;;;;6190652;28;20070;-74
2021/11/08 07:31:57;;;;;;;12.82;6.55;;;9.50;58.40;;;;;;6212993;28;20038;-73
2021/11/08 07:34:59;;;;;;;12.25;6.10;;;9.50;58.30;;;;;;6200593;28;20033;-73
2021/11/08 07:37:59;;;;;;;17.98;5.38;;;9.50;58.20;;;;;;6198365;28;20034;-73
2021/11/08 07:41:02;;;;;;;13.15;5.90;;;9.50;58.20;;;;;;6193971;28;20045;-74
2021/11/08 07:44:03;;;;;;;19.38;6.20;;;9.60;58.20;;;;;;6199244;28;20052;-74
2021/11/08 07:47:04;;;;;;;11.68;5.82;;;9.70;58.10;;;;;;6197760;28;20113;-74
2021/11/08 07:50:06;;;;;;;16.95;5.70;;;9.70;58.50;;;;;;6198702;28;20035;-74
2021/11/08 07:53:08;;;;;;;13.05;5.15;;;9.70;58.00;;;;;;6213769;28;20026;-73
2021/11/08 07:56:10;;;;;;;12.80;6.22;;;9.70;57.90;;;;;;6198844;28;20041;-75
2021/11/08 07:59:11;;;;;;;15.45;7.10;;;9.80;57.80;;;;;;6198990;28;20092;-73
2021/11/08 08:02:12;;;;;;;15.05;5.85;;;9.80;57.70;;;;;;6198975;28;20054;-73
2021/11/08 08:05:13;;;;;;;14.95;5.90;;;9.90;57.50;;;;;;6198390;28;20049;-74
2021/11/08 08:08:14;;;;;;;11.85;5.93;;;9.90;57.40;;;;;;6196791;28;20022;-73
2021/11/08 08:11:16;;;;;;;17.23;5.95;;;10.00;57.30;;;;;;6198866;28;20050;-73
2021/11/08 08:14:17;;;;;;;16.58;5.78;;;10.10;57.00;;;;;;6198577;28;20578;-74
2021/11/08 08:17:18;;;;;;;12.25;5.30;;;10.30;57.00;;;;;;6198877;28;20109;-73
2021/11/08 08:20:21;;;;;;;18.40;7.15;;;10.50;56.80;;;;;;6199079;28;20418;-73
2021/11/08 08:23:22;;;;;;;20.33;7.47;;;10.60;56.60;;;;;;6200376;28;20015;-73
2021/11/08 08:26:26;;;;;;;17.88;6.53;;;10.70;56.40;;;;;;6206816;28;20065;-73
2021/11/08 08:29:27;;;;;;;10.60;5.43;;;10.80;56.20;;;;;;6209847;28;20034;-73
2021/11/08 08:32:28;;;;;;;11.45;5.18;;;10.90;55.80;;;;;;6198382;28;20030;-74
2021/11/08 08:35:29;;;;;;;16.65;5.63;;;11.00;55.50;;;;;;6197548;28;20042;-73
2021/11/08 08:38:30;;;;;;;11.48;5.30;;;11.10;55.30;;;;;;6196225;28;20031;-73
2021/11/08 08:41:32;;;;;;;13.05;4.75;;;11.20;55.00;;;;;;6197998;28;20436;-73
2021/11/08 08:44:34;;;;;;;20.05;5.85;;;11.20;54.70;;;;;;6198076;28;20031;-73
2021/11/08 08:47:34;;;;;;;12.52;5.63;;;11.30;54.50;;;;;;6197471;28;20364;-73
2021/11/08 08:50:36;;;;;;;16.00;5.82;;;11.30;54.30;;;;;;6180137;28;20030;-75
2021/11/08 08:53:37;;;;;;;12.80;4.55;;;11.30;54.00;;;;;;6198186;28;20023;-73
2021/11/08 08:56:39;;;;;;;13.30;4.95;;;11.30;53.90;;;;;;6197159;28;20030;-74
2021/11/08 08:59:41;;;;;;;10.27;5.10;;;11.30;53.70;;;;;;6196211;28;20034;-74
2021/11/08 09:02:42;;;;;;;15.20;5.45;;;11.20;53.80;;;;;;6196835;28;20026;-74
2021/11/08 09:05:45;;;;;;;12.75;5.38;;;11.20;53.90;;;;;;6196089;28;20038;-74
2021/11/08 09:08:46;;;;;;;12.23;5.53;;;11.20;53.90;;;;;;6197470;28;20030;-74
2021/11/08 09:11:47;;;;;;;18.95;6.22;;;11.30;53.90;;;;;;6196063;28;20033;-74
2021/11/08 09:14:48;;;;;;;13.52;5.55;;;11.30;53.90;;;;;;6209843;28;20353;-73
2021/11/08 09:17:50;;;;;;;16.05;5.75;;;11.40;53.80;;;;;;6178327;28;20034;-74
2021/11/08 09:20:51;;;;;;;23.92;6.32;;;11.40;53.70;;;;;;6197275;28;20092;-73
2021/11/08 09:23:55;;;;;;;29.50;7.18;;;11.50;53.60;;;;;;6180490;28;20056;-74
2021/11/08 09:26:56;;;;;;;13.10;5.40;;;11.60;53.50;;;;;;6193577;28;20058;-75
2021/11/08 09:29:57;;;;;;;12.60;6.40;;;11.70;53.10;;;;;;6194208;28;20420;-73
2021/11/08 09:32:58;;;;;;;13.15;6.47;;;11.60;52.90;;;;;;6197535;28;20049;-73
2021/11/08 09:36:05;;;;;;;12.57;5.53;;;11.70;53.10;;;;;;6197356;28;20036;-74
2021/11/08 09:39:21;;;;;;;18.55;7.18;;;11.70;53.10;;;;;;6194687;28;20034;-74
2021/11/08 09:42:22;;;;;;;19.73;6.28;;;11.80;53.00;;;;;;6208472;28;20034;-72
2021/11/08 09:45:24;;;;;;;14.18;6.03;;;11.90;52.90;;;;;;6197427;28;20057;-73
2021/11/08 09:48:26;;;;;;;17.98;6.57;;;11.90;52.70;;;;;;6197669;28;20054;-73
2021/11/08 09:51:30;;;;;;;10.25;5.53;;;12.00;52.70;;;;;;6208592;28;20026;-74
2021/11/08 09:54:33;;;;;;;14.48;6.95;;;12.10;52.80;;;;;;6196967;28;20030;-73
2021/11/08 09:57:34;;;;;;;18.10;7.82;;;12.20;52.60;;;;;;6197646;28;20022;-73
2021/11/08 10:00:35;;;;;;;47.65;16.33;;;12.20;52.40;;;;;;6180584;28;20029;-74
2021/11/08 10:03:37;;;;;;;16.80;8.20;;;12.30;52.30;;;;;;6196128;28;20034;-74
2021/11/08 10:06:39;;;;;;;12.98;6.68;;;12.40;52.00;;;;;;6197641;28;20042;-74
2021/11/08 10:09:40;;;;;;;14.23;5.45;;;12.50;51.80;;;;;;6195918;28;20043;-74
2021/11/08 10:12:43;;;;;;;15.35;6.20;;;12.50;51.70;;;;;;6197771;28;20476;-74
2021/11/08 10:15:49;;;;;;;12.38;6.03;;;12.50;51.60;;;;;;6201676;28;20034;-74
2021/11/08 10:18:53;;;;;;;19.50;5.72;;;12.50;51.60;;;;;;6201188;28;20117;-74
2021/11/08 10:21:56;;;;;;;20.55;6.00;;;12.50;51.70;;;;;;6201261;28;20030;-74
2021/11/08 10:25:00;;;;;;;17.02;5.97;;;12.50;51.80;;;;;;6198081;28;20034;-74
2021/11/08 10:28:08;;;;;;;11.32;5.30;;;12.70;51.70;;;;;;6201942;28;20022;-73
2021/11/08 10:31:16;;;;;;;14.27;4.97;;;12.90;51.50;;;;;;6177905;28;20026;-73
2021/11/08 10:34:18;;;;;;;12.93;5.47;;;13.00;51.20;;;;;;6215380;28;20023;-74
2021/11/08 10:37:30;;;;;;;13.27;5.20;;;13.20;51.10;;;;;;6200561;28;20088;-74
2021/11/08 10:40:40;;;;;;;14.63;5.85;;;13.40;50.90;;;;;;6199031;28;20458;-73
2021/11/08 10:43:48;;;;;;;11.73;6.13;;;13.60;50.40;;;;;;6197514;28;20531;-74
2021/11/08 10:46:57;;;;;;;12.10;5.75;;;13.70;49.90;;;;;;6199776;28;20081;-74
2021/11/08 10:49:58;;;;;;;9.30;5.50;;;13.80;49.90;;;;;;6200139;28;20030;-74
2021/11/08 10:53:02;;;;;;;16.17;5.88;;;14.10;49.50;;;;;;6197261;28;20149;-74
2021/11/08 10:56:09;;;;;;;13.98;6.30;;;14.50;48.70;;;;;;6200192;28;20482;-74
2021/11/08 10:59:17;;;;;;;12.13;6.13;;;14.80;48.30;;;;;;6200215;28;20447;-74
2021/11/08 11:02:26;;;;;;;23.15;8.55;;;15.00;47.80;;;;;;6200631;28;20070;-73
2021/11/08 11:05:27;;;;;;;16.25;6.50;;;15.00;47.80;;;;;;6199474;28;20034;-74
2021/11/08 11:08:29;;;;;;;16.95;7.03;;;15.10;47.80;;;;;;6201612;28;20412;-74
2021/11/08 11:11:30;;;;;;;16.73;7.05;;;15.20;47.70;;;;;;6202218;28;20030;-74
2021/11/08 11:14:42;;;;;;;11.25;5.22;;;15.20;47.60;;;;;;6200383;28;20127;-74
2021/11/08 11:17:45;;;;;;;7.05;4.10;;;15.20;47.60;;;;;;6200267;28;20080;-74
2021/11/08 11:20:48;;;;;;;9.57;4.50;;;15.20;47.80;;;;;;6199066;28;20022;-74
2021/11/08 11:23:50;;;;;;;10.82;4.70;;;15.30;47.90;;;;;;6201222;28;20026;-75
2021/11/08 11:26:52;;;;;;;15.15;5.20;;;15.20;48.00;;;;;;6199697;28;20450;-75
2021/11/08 11:30:16;;;;;;;7.60;3.47;;;15.30;48.10;;;;;;6199115;28;20028;-74
2021/11/08 11:33:21;;;;;;;6.30;2.90;;;15.30;48.40;;;;;;6198345;28;20112;-74
2021/11/08 11:36:26;;;;;;;4.10;2.28;;;15.30;48.60;;;;;;6198582;28;20040;-74
2021/11/08 11:39:27;;;;;;;4.63;2.50;;;15.30;48.90;;;;;;6199163;28;20030;-74
2021/11/08 11:42:28;;;;;;;11.05;3.72;;;15.20;49.10;;;;;;6198830;28;20046;-74
2021/11/08 11:45:45;;;;;;;5.68;2.95;;;15.10;49.20;;;;;;6199243;28;20076;-74
2021/11/08 11:48:46;;;;;;;7.55;2.50;;;15.00;49.60;;;;;;6198400;28;20045;-73
2021/11/08 11:51:56;;;;;;;4.93;2.08;;;15.00;49.80;;;;;;6195354;28;20502;-74
2021/11/08 11:54:57;;;;;;;12.43;4.28;;;15.00;49.90;;;;;;6197635;28;20165;-75
2021/11/08 11:58:01;;;;;;;5.65;2.90;;;15.00;49.90;;;;;;6199185;28;20095;-73
2021/11/08 12:01:04;;;;;;;7.20;2.95;;;15.00;49.90;;;;;;6195676;28;20471;-74
2021/11/08 12:04:06;;;;;;;6.53;2.15;;;15.00;49.90;;;;;;6200766;28;20037;-73
2021/11/08 12:07:09;;;;;;;5.25;2.65;;;14.90;50.00;;;;;;6196558;28;20483;-74
2021/11/08 12:10:10;;;;;;;3.97;2.33;;;14.90;50.10;;;;;;6192615;28;20379;-73
2021/11/08 12:13:28;;;;;;;7.20;2.13;;;14.90;50.30;;;;;;6198688;28;20038;-75
2021/11/08 12:16:29;;;;;;;3.50;2.00;;;14.90;50.30;;;;;;6195361;28;20430;-73
2021/11/08 12:19:39;;;;;;;4.13;1.92;;;14.90;50.30;;;;;;6197555;28;20036;-74
2021/11/08 12:22:41;;;;;;;3.38;1.80;;;14.90;50.50;;;;;;6197219;28;20125;-73
2021/11/08 12:25:44;;;;;;;5.18;1.85;;;14.90;50.60;;;;;;6196436;28;20027;-74
2021/11/08 12:28:47;;;;;;;4.20;1.92;;;14.90;50.50;;;;;;6196049;28;20037;-74
2021/11/08 12:32:11;;;;;;;8.77;1.95;;;14.80;50.40;;;;;;6197387;28;20030;-74
2021/11/08 12:35:34;;;;;;;3.03;2.05;;;14.70;50.70;;;;;;6194692;28;20105;-74
2021/11/08 12:39:11;;;;;;;5.78;1.98;;;14.70;51.50;;;;;;6194598;28;20027;-74
2021/11/08 12:42:12;;;;;;;5.72;2.25;;;14.70;51.00;;;;;;6212524;28;20042;-74
2021/11/08 12:45:23;;;;;;;6.18;2.35;;;14.70;50.90;;;;;;6198136;28;20092;-74
2021/11/08 12:48:33;;;;;;;3.47;1.73;;;14.80;50.90;;;;;;6177272;28;20096;-74
2021/11/08 12:51:34;;;;;;;4.93;2.40;;;14.80;50.70;;;;;;6211723;28;20038;-74
2021/11/08 12:54:55;;;;;;;7.47;2.13;;;14.90;50.60;;;;;;6213854;28;20096;-73
2021/11/08 12:57:57;;;;;;;4.15;2.03;;;14.90;50.60;;;;;;6197814;28;20038;-74
2021/11/08 13:01:00;;;;;;;2.45;1.80;;;14.90;50.50;;;;;;6196340;28;20038;-74
2021/11/08 13:04:06;;;;;;;3.95;2.20;;;14.90;50.40;;;;;;6202406;28;20172;-74
2021/11/08 13:07:10;;;;;;;3.95;1.55;;;14.80;50.50;;;;;;6200845;28;20452;-74
2021/11/08 13:10:24;;;;;;;2.78;1.80;;;14.80;50.50;;;;;;6196708;28;20372;-75
2021/11/08 13:13:26;;;;;;;7.57;1.90;;;14.80;50.60;;;;;;6190779;28;20030;-74
2021/11/08 13:16:40;;;;;;;2.70;1.70;;;14.80;50.60;;;;;;6197250;28;20026;-74
2021/11/08 13:19:48;;;;;;;6.32;2.30;;;14.80;50.60;;;;;;6195061;28;20057;-74
2021/11/08 13:22:57;;;;;;;3.53;2.20;;;14.80;50.50;;;;;;6193683;28;20427;-74
2021/11/08 13:25:58;;;;;;;3.30;1.90;;;14.90;50.60;;;;;;6194570;28;20083;-74
2021/11/08 13:29:00;;;;;;;5.63;2.25;;;14.90;50.40;;;;;;6195816;28;20037;-74
2021/11/08 13:32:08;;;;;;;16.70;2.10;;;14.90;50.40;;;;;;6193493;28;20057;-75
2021/11/08 13:35:25;;;;;;;4.95;2.17;;;14.90;50.40;;;;;;6197367;28;20030;-74
2021/11/08 13:38:41;;;;;;;3.88;1.80;;;15.00;50.50;;;;;;6197521;28;20029;-73
2021/11/08 13:41:42;;;;;;;7.22;2.10;;;14.90;50.40;;;;;;6204777;28;20108;-75
2021/11/08 13:44:43;;;;;;;3.50;1.70;;;15.00;50.30;;;;;;6196430;28;20038;-74
2021/11/08 13:47:46;;;;;;;7.35;2.00;;;15.00;50.30;;;;;;6198987;28;20037;-74
2021/11/08 13:50:48;;;;;;;10.43;2.55;;;15.00;50.30;;;;;;6200441;28;20172;-74
2021/11/08 13:53:53;;;;;;;6.35;1.90;;;15.00;50.30;;;;;;6201650;28;20030;-72
2021/11/08 13:57:10;;;;;;;3.85;1.63;;;15.00;50.20;;;;;;6198264;28;20045;-74
2021/11/08 14:00:15;;;;;;;4.95;1.70;;;15.00;50.30;;;;;;6198884;28;20032;-74
2021/11/08 14:03:17;;;;;;;2.83;2.45;;;15.00;50.40;;;;;;6199498;28;20018;-73
2021/11/08 14:06:36;;;;;;;4.97;2.10;;;15.00;50.40;;;;;;6201735;28;20030;-74
2021/11/08 14:09:40;;;;;;;3.50;2.00;;;15.00;50.50;;;;;;6201854;28;20023;-74
2021/11/08 14:12:41;;;;;;;3.83;1.70;;;15.00;50.50;;;;;;6202572;28;20038;-74
2021/11/08 14:15:42;;;;;;;6.90;1.60;;;14.90;50.50;;;;;;6200294;28;20037;-74
2021/11/08 14:18:50;;;;;;;5.57;1.92;;;14.90;50.60;;;;;;6202372;28;20038;-74
2021/11/08 14:21:53;;;;;;;3.95;1.73;;;14.90;50.70;;;;;;6201182;28;20045;-73
2021/11/08 14:24:56;;;;;;;4.65;2.63;;;14.80;50.80;;;;;;6197331;28;20364;-74
2021/11/08 14:27:58;;;;;;;3.53;1.73;;;14.80;50.90;;;;;;6201415;28;20317;-74
2021/11/08 14:31:00;;;;;;;2.10;1.50;;;14.80;51.00;;;;;;6198176;28;20372;-74
2021/11/08 14:34:05;;;;;;;6.88;1.70;;;14.80;51.00;;;;;;6198315;28;20058;-74
2021/11/08 14:37:12;;;;;;;3.25;1.90;;;14.80;51.10;;;;;;6200272;28;20026;-75
2021/11/08 14:40:24;;;;;;;5.18;1.90;;;14.80;51.20;;;;;;6199818;28;20027;-73
2021/11/08 14:43:26;;;;;;;5.50;1.65;;;14.80;51.40;;;;;;6201940;28;20022;-74
2021/11/08 14:46:40;;;;;;;3.53;1.95;;;14.70;51.40;;;;;;6198502;28;20084;-75
2021/11/08 14:49:51;;;;;;;5.88;2.05;;;14.70;51.60;;;;;;6200666;28;20068;-73
2021/11/08 14:52:52;;;;;;;3.47;1.50;;;14.60;51.70;;;;;;6213677;28;20161;-73
2021/11/08 14:55:54;;;;;;;3.83;2.25;;;14.60;51.80;;;;;;6199769;28;20397;-74
2021/11/08 14:59:02;;;;;;;4.50;1.63;;;14.50;51.90;;;;;;6199040;28;20101;-75
2021/11/08 15:02:07;;;;;;;;;;;14.50;51.90;;;;;;6198214;28;20456;-74
2021/11/08 15:05:17;;;;;;;9.38;2.25;;;14.60;52.00;;;;;;6201164;28;19909;-74
2021/11/08 15:08:21;;;;;;;10.90;2.15;;;14.60;52.00;;;;;;6216879;28;20026;-74
2021/11/08 15:11:27;;;;;;;7.72;2.20;;;14.50;52.00;;;;;;6199953;28;20408;-74
2021/11/08 15:14:29;;;;;;;8.57;1.95;;;14.50;52.10;;;;;;6175479;28;20080;-74
2021/11/08 15:17:55;;;;;;;6.93;1.83;;;14.50;52.20;;;;;;6198530;28;20476;-74
2021/11/08 15:21:05;;;;;;;4.40;2.15;;;14.50;52.30;;;;;;6197117;28;20336;-74
2021/11/08 15:24:12;;;;;;;4.85;2.30;;;14.40;52.30;;;;;;6200820;28;20046;-73
2021/11/08 15:27:13;;;;;;;3.47;1.63;;;14.40;52.20;;;;;;6197800;28;20032;-74
2021/11/08 15:30:16;;;;;;;4.15;2.17;;;14.40;52.30;;;;;;6198104;28;20460;-74
2021/11/08 15:33:27;;;;;;;5.13;2.13;;;14.40;52.40;;;;;;6200095;28;20110;-73
2021/11/08 15:36:39;;;;;;;4.35;1.55;;;14.40;52.40;;;;;;6199095;28;20121;-74
2021/11/08 15:39:41;;;;;;;8.27;1.80;;;14.30;52.50;;;;;;6195285;28;20046;-74
2021/11/08 15:42:42;;;;;;;3.95;1.98;;;14.30;52.50;;;;;;6182857;28;20109;-74
2021/11/08 15:45:57;;;;;;;5.35;2.00;;;14.30;52.60;;;;;;6199533;28;20079;-75
2021/11/08 15:48:59;;;;;;;5.93;1.95;;;14.30;52.60;;;;;;6196249;28;20038;-74
2021/11/08 15:52:00;;;;;;;4.32;1.83;;;14.30;53.10;;;;;;6199771;28;20034;-75
2021/11/08 15:55:02;;;;;;;6.50;1.77;;;14.30;52.60;;;;;;6197180;28;20038;-74
2021/11/08 15:58:03;;;;;;;2.75;1.50;;;14.30;52.60;;;;;;6199450;28;20065;-74
2021/11/08 16:01:08;;;;;;;5.63;1.70;;;14.30;52.60;;;;;;6197915;28;20621;-74
2021/11/08 16:04:10;;;;;;;9.93;2.22;;;14.30;52.70;;;;;;6200123;28;20019;-74
2021/11/08 16:07:10;;;;;;;4.50;1.77;;;14.30;52.80;;;;;;6199686;28;20026;-75
2021/11/08 16:10:12;;;;;;;2.70;1.83;;;14.30;52.90;;;;;;6197296;28;20037;-74
2021/11/08 16:13:13;;;;;;;4.05;2.17;;;14.30;52.90;;;;;;6197629;28;20085;-74
2021/11/08 16:16:17;;;;;;;7.55;2.05;;;14.30;53.50;;;;;;6197734;28;20357;-75
2021/11/08 16:19:19;;;;;;;7.25;2.35;;;14.30;52.80;;;;;;6193474;28;20349;-73
2021/11/08 16:22:20;;;;;;;4.55;2.03;;;14.30;52.80;;;;;;6196691;28;20268;-73
2021/11/08 16:25:22;;;;;;;3.85;1.73;;;14.30;52.80;;;;;;6197555;28;20034;-75
2021/11/08 16:28:25;;;;;;;6.03;1.80;;;14.30;52.90;;;;;;6198819;28;20411;-73
2021/11/08 16:32:20;;;;;;;10.27;2.38;;;14.30;52.90;;;;;;6291594;27;20418;-73
2021/11/08 16:35:22;;;;;;;8.55;1.98;;;14.30;52.90;;;;;;6238144;28;20375;-73
2021/11/08 16:38:26;;;;;;;5.30;2.10;;;14.30;52.90;;;;;;6238209;28;20038;-74
2021/11/08 16:41:27;;;;;;;4.65;1.98;;;14.30;52.90;;;;;;6235861;28;20021;-74
2021/11/08 16:44:28;;;;;;;3.88;1.98;;;14.30;53.50;;;;;;6239895;28;20049;-73
2021/11/08 16:47:31;;;;;;;4.88;2.17;;;14.30;52.90;;;;;;6238352;28;20029;-75
2021/11/08 16:50:33;;;;;;;5.65;2.10;;;14.30;52.90;;;;;;6254882;28;20034;-73
2021/11/08 16:53:34;;;;;;;3.55;1.90;;;14.30;52.90;;;;;;6238033;28;20071;-73
2021/11/08 16:56:36;;;;;;;4.30;2.28;;;14.30;53.00;;;;;;6239773;28;20021;-73
2021/11/08 16:59:37;;;;;;;5.72;2.00;;;14.30;53.00;;;;;;6215802;28;20089;-74
2021/11/08 17:02:41;;;;;;;3.13;1.95;;;14.30;53.10;;;;;;6238117;28;20477;-74
2021/11/08 17:05:49;;;;;;;3.63;2.22;;;14.30;53.10;;;;;;6240583;28;20555;-74
2021/11/08 17:09:01;;;;;;;8.40;2.80;;;14.30;53.10;;;;;;6236979;28;20538;-74
2021/11/08 17:15:23;;;;;;;8.15;2.10;;;14.30;53.20;;;;;;6286673;28;20107;-73
2021/11/08 17:18:24;;;;;;;3.53;2.08;;;14.30;53.20;;;;;;6288239;28;20029;-73
2021/11/08 17:21:29;;;;;;;4.30;1.95;;;14.40;53.20;;;;;;6283072;28;20067;-74
2021/11/08 17:24:30;;;;;;;9.32;2.67;;;14.40;53.20;;;;;;6267229;28;20032;-73
2021/11/08 17:27:31;;;;;;;2.97;1.90;;;14.40;53.20;;;;;;6286529;28;20028;-73